Harmony Corners, New York
Current Conditions -  °F | °C
As of 12:51 PM on Sunday 21 Dec 2014 (Local Time) from KALB Reporting Station
Light Snow Light Snow  
Wind Chill: -4°   Ceiling: 3000
Heat Index: -1°   Visibility: 8mi
Dew Point: -5°   Wind: 5mph
Humidity: 75%   Direction: 350°N
Pressure: 30.32"   Gusts: NA
Location:  43.002°N, 73.8759°W
Report Text: KALB 211751Z 35004KT 8SM -SN BKN030 OVC037 M01/M05 A3032 RMK AO2 SLP272 PCPN VRY LGT 4/001 P0000 60000 T10111050 11011 21028 58013
Loading
Personal Weather Stations






























Interactive Weather Map New forecast layout! Learn more

10-Day Weather Forecast

Advertisements
Track Severe Weather on mobile